Time;durP1;ratioP1;P1;durP2;ratioP2;P2;SDS_P1;SDS_P2;PMS_P1;PMS_P2;Temp;Humidity;BMP_temperature;BMP_pressure;BME280_temperature;BME280_humidity;BME280_pressure;Samples;Min_cycle;Max_cycle;Signal;HPM_P1;HPM_P2
2021/05/23 00:00:55;;;;;;;7.87;7.00;;;17.00;99.90;;;;;;4349305;32;20073;-64
2021/05/23 00:03:21;;;;;;;8.93;6.45;;;16.90;99.90;;;;;;4363543;32;20149;-61
2021/05/23 00:05:48;;;;;;;8.35;6.50;;;16.90;99.90;;;;;;4349221;32;20575;-63
2021/05/23 00:08:17;;;;;;;7.80;6.12;;;16.80;99.90;;;;;;4337248;32;20417;-63
2021/05/23 00:11:07;;;;;;;9.90;7.57;;;16.80;99.90;;;;;;4337440;32;20100;-64
2021/05/23 00:13:56;;;;;;;9.10;6.97;;;16.90;99.90;;;;;;4337594;32;20066;-64
2021/05/23 00:16:23;;;;;;;8.52;6.40;;;16.80;99.90;;;;;;4351109;32;20086;-64
2021/05/23 00:18:52;;;;;;;9.75;6.62;;;16.80;99.90;;;;;;4336742;32;20082;-63
2021/05/23 00:21:20;;;;;;;11.48;6.65;;;16.80;99.90;;;;;;4349291;32;20086;-63
2021/05/23 00:23:46;;;;;;;8.25;6.30;;;16.80;99.90;;;;;;4336975;32;20070;-63
2021/05/23 00:26:13;;;;;;;10.35;7.10;;;16.80;99.90;;;;;;4361483;32;20062;-64
2021/05/23 00:28:40;;;;;;;11.88;7.93;;;16.70;99.90;;;;;;4348785;32;20206;-64
2021/05/23 00:31:07;;;;;;;8.70;6.60;;;16.70;99.90;;;;;;4336707;32;20206;-62
2021/05/23 00:33:33;;;;;;;9.88;7.32;;;16.80;99.90;;;;;;4337283;32;20088;-66
2021/05/23 00:35:59;;;;;;;11.60;7.37;;;16.70;99.90;;;;;;4365042;32;20090;-63
2021/05/23 00:38:26;;;;;;;10.00;7.32;;;16.80;99.90;;;;;;4364611;32;20137;-63
2021/05/23 00:40:52;;;;;;;9.30;7.07;;;16.80;99.90;;;;;;4339842;32;20104;-64
2021/05/23 00:43:19;;;;;;;7.93;6.22;;;16.80;99.90;;;;;;4363436;32;20078;-63
2021/05/23 00:45:46;;;;;;;10.23;5.80;;;16.80;99.90;;;;;;4338763;32;20525;-63
2021/05/23 00:48:13;;;;;;;12.15;7.03;;;16.90;99.90;;;;;;4351237;32;20077;-63
2021/05/23 00:50:39;;;;;;;9.18;6.80;;;16.80;99.90;;;;;;4364309;32;20069;-64
2021/05/23 00:53:06;;;;;;;7.15;5.90;;;16.90;99.90;;;;;;4339087;32;20163;-63
2021/05/23 00:55:32;;;;;;;9.80;6.20;;;16.80;99.90;;;;;;4351433;32;20070;-63
2021/05/23 00:57:59;;;;;;;10.70;6.93;;;16.90;99.90;;;;;;4363799;32;20533;-62
2021/05/23 01:00:44;;;;;;;14.85;7.00;;;16.90;99.90;;;;;;4363354;32;20074;-63
2021/05/23 01:03:29;;;;;;;8.45;6.53;;;16.90;99.90;;;;;;4375702;32;20098;-64
2021/05/23 01:06:07;;;;;;;8.88;6.68;;;16.90;99.90;;;;;;4375874;32;20114;-63
2021/05/23 01:08:36;;;;;;;9.88;6.70;;;16.90;99.90;;;;;;4363658;32;20070;-64
2021/05/23 01:11:08;;;;;;;7.65;6.40;;;16.90;99.90;;;;;;4363680;32;20156;-64
2021/05/23 01:13:35;;;;;;;10.85;6.80;;;16.90;99.90;;;;;;4351577;32;20078;-63
2021/05/23 01:16:09;;;;;;;6.93;5.78;;;16.90;99.90;;;;;;4363612;32;20150;-63
2021/05/23 01:19:04;;;;;;;9.88;6.07;;;17.10;99.90;;;;;;4364270;32;20443;-63
2021/05/23 01:21:33;;;;;;;9.13;6.45;;;17.10;99.90;;;;;;4355325;32;20070;-62
2021/05/23 01:24:05;;;;;;;9.20;6.32;;;17.10;99.90;;;;;;4363716;32;20086;-63
2021/05/23 01:26:43;;;;;;;8.35;6.45;;;17.10;99.90;;;;;;4350884;32;20101;-64
2021/05/23 01:29:10;;;;;;;10.35;6.35;;;17.10;99.90;;;;;;4351314;32;20515;-64
2021/05/23 01:31:38;;;;;;;8.65;5.95;;;17.20;99.90;;;;;;4350458;32;20443;-63
2021/05/23 01:34:04;;;;;;;11.23;5.68;;;17.20;99.90;;;;;;4363293;32;20071;-65
2021/05/23 01:36:35;;;;;;;8.80;5.93;;;17.30;99.90;;;;;;4360695;32;20063;-64
2021/05/23 01:39:03;;;;;;;7.87;4.70;;;17.30;99.90;;;;;;4348451;32;20069;-64
2021/05/23 01:41:29;;;;;;;11.15;5.85;;;17.40;99.90;;;;;;4335269;32;20574;-63
2021/05/23 01:43:57;;;;;;;8.80;6.10;;;17.40;99.90;;;;;;4335806;32;20090;-63
2021/05/23 01:46:23;;;;;;;7.75;6.00;;;17.30;99.90;;;;;;4347920;32;20074;-63
2021/05/23 01:48:49;;;;;;;9.23;6.12;;;17.40;99.90;;;;;;4348791;32;20489;-63
2021/05/23 01:51:15;;;;;;;8.68;6.40;;;17.40;99.90;;;;;;4360984;32;20516;-64
2021/05/23 01:53:42;;;;;;;8.18;5.72;;;17.40;99.90;;;;;;4347967;32;20069;-62
2021/05/23 01:56:09;;;;;;;10.27;5.90;;;17.30;99.90;;;;;;4347868;32;20082;-64
2021/05/23 01:58:35;;;;;;;8.60;5.75;;;17.50;99.90;;;;;;4348081;32;20155;-64
2021/05/23 02:01:03;;;;;;;7.65;5.87;;;17.40;99.90;;;;;;4323161;32;20230;-62
2021/05/23 02:03:30;;;;;;;7.72;5.85;;;17.60;99.90;;;;;;4335520;32;20075;-63
2021/05/23 02:05:58;;;;;;;12.75;6.20;;;17.60;99.90;;;;;;4323152;32;20078;-63
2021/05/23 02:08:26;;;;;;;8.18;6.30;;;17.60;99.90;;;;;;4335722;32;20080;-64
2021/05/23 02:10:57;;;;;;;11.57;6.00;;;17.70;99.90;;;;;;4348172;32;20491;-64
2021/05/23 02:13:24;;;;;;;7.82;5.32;;;17.70;99.90;;;;;;4336464;32;20086;-64
2021/05/23 02:15:51;;;;;;;7.87;5.25;;;17.80;99.90;;;;;;4335520;32;20157;-63
2021/05/23 02:18:17;;;;;;;8.68;5.70;;;17.90;99.90;;;;;;4344503;32;20078;-63
2021/05/23 02:20:43;;;;;;;10.05;6.10;;;18.00;99.90;;;;;;4360388;32;20082;-63
2021/05/23 02:23:22;;;;;;;5.50;4.40;;;17.90;99.90;;;;;;4347886;32;20078;-63
2021/05/23 02:25:48;;;;;;;7.50;5.05;;;18.00;99.90;;;;;;4347943;32;20085;-63
2021/05/23 02:28:15;;;;;;;8.43;5.37;;;18.10;99.90;;;;;;4360328;32;20481;-63
2021/05/23 02:30:53;;;;;;;8.23;4.80;;;18.10;99.90;;;;;;4347509;32;20074;-63
2021/05/23 02:33:21;;;;;;;7.53;5.00;;;18.10;99.90;;;;;;4348189;32;20077;-63
2021/05/23 02:35:53;;;;;;;8.98;5.30;;;18.20;99.90;;;;;;4350505;32;20070;-62
2021/05/23 02:38:19;;;;;;;9.07;5.03;;;18.20;99.90;;;;;;4363531;32;20098;-62
2021/05/23 02:40:47;;;;;;;7.75;4.93;;;18.30;99.90;;;;;;4362763;32;20074;-63
2021/05/23 02:43:13;;;;;;;9.60;4.72;;;18.40;99.90;;;;;;4338123;32;20074;-63
2021/05/23 02:45:41;;;;;;;7.10;4.70;;;18.30;99.90;;;;;;4337866;32;20516;-63
2021/05/23 02:48:08;;;;;;;6.87;4.37;;;18.30;99.90;;;;;;4350186;32;20070;-64
2021/05/23 02:50:40;;;;;;;7.07;4.80;;;18.40;99.90;;;;;;4374610;32;20092;-63
2021/05/23 02:53:06;;;;;;;5.22;4.30;;;18.40;99.90;;;;;;4365136;32;20078;-64
2021/05/23 02:55:34;;;;;;;7.07;4.28;;;18.50;99.90;;;;;;4340872;32;20192;-63
2021/05/23 02:58:00;;;;;;;7.22;4.07;;;18.70;99.90;;;;;;4365442;32;20081;-64
2021/05/23 03:00:27;;;;;;;5.85;3.80;;;18.70;99.90;;;;;;4353162;32;20142;-63
2021/05/23 03:02:53;;;;;;;8.57;3.90;;;18.80;99.90;;;;;;4352604;32;20155;-64
2021/05/23 03:05:21;;;;;;;6.45;4.18;;;18.90;99.90;;;;;;4365174;32;20089;-64
2021/05/23 03:07:53;;;;;;;7.12;4.37;;;18.90;99.90;;;;;;4364900;32;20451;-65
2021/05/23 03:10:23;;;;;;;7.32;3.62;;;19.00;99.90;;;;;;4353307;32;20162;-64
2021/05/23 03:12:49;;;;;;;4.45;3.95;;;19.30;99.90;;;;;;4340734;32;20184;-65
2021/05/23 03:15:18;;;;;;;6.55;4.10;;;19.40;99.90;;;;;;4364990;32;20077;-63
2021/05/23 03:17:44;;;;;;;6.72;4.10;;;19.50;99.90;;;;;;4362373;32;20089;-62
2021/05/23 03:20:12;;;;;;;8.48;3.95;;;19.40;99.90;;;;;;4350058;32;20069;-63
2021/05/23 03:22:40;;;;;;;8.25;3.95;;;19.60;99.90;;;;;;4362758;32;20078;-64
2021/05/23 03:25:08;;;;;;;4.68;3.80;;;20.00;99.90;;;;;;4362452;32;20063;-63
2021/05/23 03:27:35;;;;;;;5.85;3.97;;;19.90;99.90;;;;;;4337578;32;20082;-64
2021/05/23 03:30:01;;;;;;;4.75;3.65;;;19.80;99.90;;;;;;4362034;32;20073;-64
2021/05/23 03:32:27;;;;;;;4.95;3.60;;;19.80;99.90;;;;;;4349931;32;20070;-64
2021/05/23 03:34:54;;;;;;;5.93;3.55;;;20.10;99.90;;;;;;4337074;32;20515;-65
2021/05/23 03:37:20;;;;;;;5.80;3.97;;;20.30;99.90;;;;;;4371320;32;20598;-63
2021/05/23 03:39:46;;;;;;;4.22;3.10;;;20.20;99.90;;;;;;4350184;32;20151;-64
2021/05/23 03:42:12;;;;;;;6.03;3.67;;;20.20;99.90;;;;;;4337723;32;20098;-65
2021/05/23 03:44:38;;;;;;;6.43;3.83;;;20.10;99.90;;;;;;4349656;32;20078;-63
2021/05/23 03:47:05;;;;;;;5.65;3.72;;;20.00;99.90;;;;;;4349848;32;20077;-64
2021/05/23 03:49:31;;;;;;;6.03;3.67;;;20.10;99.90;;;;;;4325246;32;20183;-64
2021/05/23 03:51:57;;;;;;;7.68;4.25;;;20.10;99.90;;;;;;4363693;32;20090;-64
2021/05/23 03:54:23;;;;;;;10.30;4.15;;;20.30;99.90;;;;;;4350422;32;20062;-63
2021/05/23 03:56:49;;;;;;;8.00;4.28;;;20.40;99.90;;;;;;4361738;32;20151;-63
2021/05/23 03:59:15;;;;;;;7.57;4.15;;;20.70;99.90;;;;;;4361999;32;20448;-63
2021/05/23 04:01:41;;;;;;;9.35;4.60;;;20.90;99.90;;;;;;4337083;32;20079;-64
2021/05/23 04:04:09;;;;;;;6.85;4.25;;;20.80;99.90;;;;;;4348673;32;20070;-63
2021/05/23 04:06:36;;;;;;;5.25;3.83;;;20.80;99.90;;;;;;4337727;32;20505;-64
2021/05/23 04:09:02;;;;;;;8.05;3.83;;;20.90;99.90;;;;;;4337193;32;20493;-63
2021/05/23 04:11:34;;;;;;;9.20;4.10;;;21.20;99.90;;;;;;4349536;32;20090;-63
2021/05/23 04:14:01;;;;;;;7.60;4.15;;;21.20;99.90;;;;;;4361885;32;20070;-63
2021/05/23 04:16:27;;;;;;;8.15;3.80;;;21.40;99.90;;;;;;4337410;32;20058;-63
2021/05/23 04:18:53;;;;;;;6.10;3.67;;;21.50;99.90;;;;;;4364489;32;20113;-63
2021/05/23 04:21:19;;;;;;;8.88;4.07;;;21.60;99.90;;;;;;4364093;32;20059;-64
2021/05/23 04:23:46;;;;;;;7.82;3.42;;;21.70;99.90;;;;;;4339693;32;20120;-64
2021/05/23 04:26:12;;;;;;;6.55;3.58;;;21.80;99.90;;;;;;4363927;32;20106;-63
2021/05/23 04:28:38;;;;;;;6.37;3.62;;;22.00;99.90;;;;;;4376085;32;20507;-63
2021/05/23 04:31:05;;;;;;;8.43;3.53;;;22.80;99.90;;;;;;4364050;32;20081;-63
2021/05/23 04:33:31;;;;;;;7.93;3.45;;;23.80;99.90;;;;;;4351611;32;20448;-63
2021/05/23 04:35:58;;;;;;;6.30;3.72;;;23.70;99.90;;;;;;4361514;32;20073;-63
2021/05/23 04:38:24;;;;;;;6.65;3.97;;;24.10;99.90;;;;;;4336439;32;20073;-63
2021/05/23 04:40:50;;;;;;;5.75;3.62;;;24.20;99.90;;;;;;4361118;32;20074;-63
2021/05/23 04:43:17;;;;;;;8.32;3.50;;;24.90;99.90;;;;;;4336466;32;20093;-63
2021/05/23 04:45:43;;;;;;;4.93;3.30;;;24.00;99.90;;;;;;4348824;32;20058;-63
2021/05/23 04:48:10;;;;;;;5.90;3.80;;;23.60;99.90;;;;;;4349032;32;20157;-63
2021/05/23 04:50:36;;;;;;;6.80;3.97;;;24.10;99.90;;;;;;4337196;32;20528;-62
2021/05/23 04:53:03;;;;;;;7.35;3.50;;;24.40;99.90;;;;;;4336281;32;20097;-63
2021/05/23 04:55:30;;;;;;;10.00;3.60;;;23.90;99.90;;;;;;4348562;32;20565;-63
2021/05/23 04:57:56;;;;;;;6.10;2.83;;;24.00;99.90;;;;;;4361724;32;20496;-63
2021/05/23 05:00:22;;;;;;;4.25;3.00;;;25.20;99.90;;;;;;4348939;32;20065;-65
2021/05/23 05:02:49;;;;;;;6.70;3.37;;;25.40;99.90;;;;;;4337243;32;20077;-63
2021/05/23 05:05:16;;;;;;;6.97;3.25;;;25.20;99.90;;;;;;4326377;32;20074;-63
2021/05/23 05:07:42;;;;;;;10.00;3.55;;;25.30;99.90;;;;;;4353709;32;20062;-62
2021/05/23 05:10:10;;;;;;;8.10;3.35;;;24.70;99.90;;;;;;4344483;32;20167;-63
2021/05/23 05:12:36;;;;;;;5.75;3.37;;;25.50;99.90;;;;;;4340930;32;20097;-63
2021/05/23 05:15:03;;;;;;;5.57;3.15;;;25.60;99.90;;;;;;4358558;32;20073;-62
2021/05/23 05:17:29;;;;;;;4.00;3.22;;;25.00;99.90;;;;;;4349823;32;20093;-63
2021/05/23 05:19:55;;;;;;;9.48;3.28;;;25.40;99.90;;;;;;4366487;32;20078;-63
2021/05/23 05:22:22;;;;;;;5.75;2.75;;;24.90;99.90;;;;;;4362630;32;20066;-63
2021/05/23 05:24:48;;;;;;;8.02;3.30;;;25.40;99.90;;;;;;4361191;32;20441;-63
2021/05/23 05:27:14;;;;;;;8.00;2.87;;;25.70;99.90;;;;;;4361178;32;20105;-63
2021/05/23 05:29:41;;;;;;;4.12;2.58;;;26.20;97.70;;;;;;4361455;32;20164;-64
2021/05/23 05:32:07;;;;;;;6.75;3.00;;;26.50;96.40;;;;;;4361550;32;20063;-64
2021/05/23 05:34:33;;;;;;;8.60;2.95;;;26.90;94.00;;;;;;4361068;32;20054;-64
2021/05/23 05:36:59;;;;;;;6.62;3.03;;;27.30;93.10;;;;;;4353048;32;20582;-63
2021/05/23 05:39:25;;;;;;;7.97;3.10;;;27.10;89.70;;;;;;4336547;32;20070;-64
2021/05/23 05:41:51;;;;;;;7.82;3.33;;;26.40;93.60;;;;;;4348229;32;20481;-62
2021/05/23 05:44:17;;;;;;;7.00;3.20;;;26.50;92.40;;;;;;4360059;32;20091;-62
2021/05/23 05:46:44;;;;;;;6.05;3.08;;;26.20;92.40;;;;;;4360408;32;20085;-62
2021/05/23 05:49:10;;;;;;;2.83;2.58;;;26.80;90.90;;;;;;4360204;32;20086;-63
2021/05/23 05:51:36;;;;;;;8.05;2.90;;;26.90;90.60;;;;;;4360035;32;20067;-63
2021/05/23 05:54:03;;;;;;;5.43;2.87;;;26.90;87.10;;;;;;4338159;32;20063;-63
2021/05/23 05:56:29;;;;;;;12.60;3.12;;;27.10;85.00;;;;;;4335681;32;20077;-65
2021/05/23 05:58:56;;;;;;;6.20;2.58;;;27.10;79.70;;;;;;4335425;32;20082;-62
2021/05/23 06:01:22;;;;;;;7.05;3.28;;;27.20;76.90;;;;;;4359825;32;20516;-65
2021/05/23 06:03:49;;;;;;;8.05;3.20;;;27.30;78.30;;;;;;4348659;32;20156;-63
2021/05/23 06:06:16;;;;;;;7.62;2.47;;;27.00;81.60;;;;;;4323516;32;20078;-63
2021/05/23 06:08:42;;;;;;;8.55;3.12;;;27.20;77.90;;;;;;4373475;32;20594;-64
2021/05/23 06:11:08;;;;;;;4.25;2.45;;;27.20;71.80;;;;;;4347747;32;20063;-64
2021/05/23 06:13:34;;;;;;;4.60;2.70;;;27.10;71.10;;;;;;4372676;32;20159;-62
2021/05/23 06:16:00;;;;;;;5.05;2.62;;;26.60;76.00;;;;;;4347920;32;20533;-64
2021/05/23 06:18:27;;;;;;;5.93;2.40;;;26.60;73.50;;;;;;4372065;32;20497;-64
2021/05/23 06:20:54;;;;;;;5.07;2.42;;;26.60;74.50;;;;;;4337464;32;20504;-67
2021/05/23 06:23:21;;;;;;;2.83;2.00;;;26.90;69.70;;;;;;4349950;32;20085;-63
2021/05/23 06:25:48;;;;;;;6.60;2.28;;;27.00;66.70;;;;;;4349961;32;20105;-64
2021/05/23 06:28:14;;;;;;;7.03;2.58;;;26.80;71.60;;;;;;4337877;32;20093;-62
2021/05/23 06:30:45;;;;;;;4.87;2.50;;;26.80;70.00;;;;;;4338159;32;20093;-63
2021/05/23 06:33:13;;;;;;;9.50;2.62;;;27.10;64.60;;;;;;4362600;32;20081;-64
2021/05/23 06:35:39;;;;;;;20.20;4.05;;;27.30;61.90;;;;;;4349947;32;20514;-63
2021/05/23 06:38:05;;;;;;;5.70;2.60;;;27.10;63.90;;;;;;4338131;32;20154;-63
2021/05/23 06:40:32;;;;;;;11.00;2.60;;;27.10;65.60;;;;;;4363212;32;20069;-64
2021/05/23 06:42:58;;;;;;;4.87;2.80;;;27.40;64.50;;;;;;4350567;32;20492;-63
2021/05/23 06:45:25;;;;;;;4.22;2.15;;;27.30;64.70;;;;;;4375751;32;20077;-64
2021/05/23 06:47:51;;;;;;;7.65;3.80;;;27.40;67.30;;;;;;4362786;32;20159;-64
2021/05/23 06:50:17;;;;;;;4.82;2.55;;;27.00;69.20;;;;;;4362564;32;20078;-63
2021/05/23 06:52:44;;;;;;;8.23;2.65;;;26.90;71.40;;;;;;4350361;32;20092;-62
2021/05/23 06:55:11;;;;;;;4.90;2.58;;;27.30;70.60;;;;;;4362166;32;20070;-63
2021/05/23 06:57:38;;;;;;;4.07;2.87;;;27.20;69.40;;;;;;4375588;32;20069;-63
2021/05/23 07:00:08;;;;;;;4.50;2.58;;;27.40;68.60;;;;;;4350537;32;20074;-63
2021/05/23 07:02:35;;;;;;;6.28;2.50;;;27.40;67.00;;;;;;4374708;32;20101;-63
2021/05/23 07:05:01;;;;;;;6.70;2.47;;;27.90;63.80;;;;;;4349702;32;20638;-63
2021/05/23 07:07:28;;;;;;;3.70;2.08;;;27.70;64.30;;;;;;4362324;32;20512;-64
2021/05/23 07:09:55;;;;;;;6.50;2.60;;;27.80;58.90;;;;;;4350619;32;20074;-64
2021/05/23 07:12:21;;;;;;;9.68;2.75;;;27.90;55.70;;;;;;4375179;32;20500;-63
2021/05/23 07:14:47;;;;;;;8.23;2.30;;;28.00;50.90;;;;;;4375427;32;20132;-62
2021/05/23 07:17:13;;;;;;;6.53;2.85;;;28.20;49.00;;;;;;4349852;32;20086;-64
2021/05/23 07:19:40;;;;;;;6.90;2.45;;;27.70;51.60;;;;;;4362339;32;20149;-64
2021/05/23 07:22:06;;;;;;;6.32;2.37;;;27.40;51.40;;;;;;4361926;32;20145;-63
2021/05/23 07:24:33;;;;;;;16.20;3.00;;;27.60;51.40;;;;;;4349656;32;20085;-63
2021/05/23 07:26:59;;;;;;;4.97;2.33;;;27.90;49.80;;;;;;4362029;32;20082;-62
2021/05/23 07:29:26;;;;;;;5.00;2.58;;;28.20;50.10;;;;;;4362205;32;20097;-63
2021/05/23 07:31:52;;;;;;;5.22;2.50;;;28.00;48.90;;;;;;4374750;32;20069;-65
2021/05/23 07:34:18;;;;;;;8.30;2.58;;;28.30;49.80;;;;;;4374415;32;20077;-63
2021/05/23 07:36:44;;;;;;;9.18;2.90;;;28.20;50.80;;;;;;4359081;32;20090;-63
2021/05/23 07:39:11;;;;;;;8.70;2.72;;;28.50;53.10;;;;;;4336271;32;20082;-63
2021/05/23 07:41:37;;;;;;;6.85;2.80;;;28.60;52.20;;;;;;4350000;32;20081;-64
2021/05/23 07:44:04;;;;;;;16.42;3.70;;;28.60;55.00;;;;;;4350207;32;20089;-64
2021/05/23 07:46:30;;;;;;;8.68;3.12;;;28.30;57.60;;;;;;4337354;32;20074;-64
2021/05/23 07:48:56;;;;;;;8.60;3.28;;;28.80;58.00;;;;;;4350082;32;20070;-63
2021/05/23 07:51:23;;;;;;;9.13;3.25;;;28.80;57.80;;;;;;4337396;32;20093;-63
2021/05/23 07:53:51;;;;;;;12.57;3.60;;;29.30;55.90;;;;;;4349624;32;20070;-64
2021/05/23 07:56:18;;;;;;;9.20;3.10;;;28.70;58.60;;;;;;4350124;32;20069;-65
2021/05/23 07:58:45;;;;;;;10.95;3.35;;;28.90;56.90;;;;;;4337298;32;20074;-64
2021/05/23 08:01:13;;;;;;;11.98;3.40;;;28.70;58.10;;;;;;4349377;32;20089;-63
2021/05/23 08:03:40;;;;;;;7.05;3.30;;;28.90;59.00;;;;;;4337258;32;20150;-64
2021/05/23 08:06:08;;;;;;;10.27;3.83;;;29.10;57.40;;;;;;4324978;32;20152;-64
2021/05/23 08:08:35;;;;;;;9.05;3.55;;;29.30;57.20;;;;;;4349940;32;20093;-63
2021/05/23 08:11:03;;;;;;;11.27;3.05;;;29.20;55.30;;;;;;4337779;32;20500;-63
2021/05/23 08:13:29;;;;;;;6.32;3.03;;;29.60;54.20;;;;;;4337247;32;20062;-63
2021/05/23 08:15:57;;;;;;;11.00;3.05;;;29.50;54.50;;;;;;4325046;32;20070;-63
2021/05/23 08:18:28;;;;;;;7.37;3.05;;;29.90;52.10;;;;;;4359004;32;20073;-64
2021/05/23 08:20:59;;;;;;;7.35;3.17;;;29.50;52.00;;;;;;4374009;32;20515;-63
2021/05/23 08:23:26;;;;;;;7.97;3.05;;;29.70;53.70;;;;;;4373820;32;20470;-63
2021/05/23 08:25:53;;;;;;;5.53;2.90;;;29.80;52.10;;;;;;4373878;32;20183;-64
2021/05/23 08:28:20;;;;;;;7.47;2.95;;;30.20;50.70;;;;;;4374129;32;20519;-64
2021/05/23 08:30:46;;;;;;;7.00;2.83;;;30.50;49.60;;;;;;4373658;32;20077;-64
2021/05/23 08:33:13;;;;;;;12.37;3.28;;;31.00;43.70;;;;;;4374116;32;20082;-64
2021/05/23 08:35:40;;;;;;;7.03;2.97;;;31.00;42.70;;;;;;4374088;32;20065;-63
2021/05/23 08:38:06;;;;;;;8.98;3.00;;;31.50;39.10;;;;;;4336777;32;20135;-63
2021/05/23 08:40:34;;;;;;;7.87;3.00;;;31.80;39.50;;;;;;4348818;32;20236;-64
2021/05/23 08:43:02;;;;;;;6.22;3.40;;;31.00;39.80;;;;;;4349089;32;20088;-63
2021/05/23 08:45:29;;;;;;;6.12;3.22;;;31.60;38.90;;;;;;4361024;32;20164;-63
2021/05/23 08:47:55;;;;;;;8.63;3.25;;;31.00;38.10;;;;;;4336814;32;20078;-63
2021/05/23 08:50:23;;;;;;;5.85;3.15;;;31.10;39.00;;;;;;4336078;32;20513;-64
2021/05/23 08:52:58;;;;;;;4.30;2.75;;;30.90;38.90;;;;;;4349441;32;20093;-63
2021/05/23 08:55:25;;;;;;;8.70;3.37;;;30.80;38.10;;;;;;4336460;32;20145;-64
2021/05/23 08:57:53;;;;;;;9.98;3.50;;;30.70;39.20;;;;;;4336640;32;20085;-63
2021/05/23 09:00:20;;;;;;;9.77;3.40;;;30.30;40.10;;;;;;4348949;32;20075;-63
2021/05/23 09:03:01;;;;;;;4.82;2.90;;;29.90;40.70;;;;;;4336496;32;20480;-64
2021/05/23 09:05:55;;;;;;;6.95;3.42;;;30.10;41.60;;;;;;4349822;32;20076;-64
2021/05/23 09:08:29;;;;;;;9.93;3.22;;;30.40;39.50;;;;;;4337636;32;20074;-63
2021/05/23 09:11:01;;;;;;;7.72;3.40;;;30.20;40.90;;;;;;4337430;32;20070;-64
2021/05/23 09:13:32;;;;;;;6.93;3.62;;;30.20;40.60;;;;;;4337396;32;20083;-63
2021/05/23 09:16:03;;;;;;;5.95;2.78;;;30.40;41.00;;;;;;4348674;32;20059;-63
2021/05/23 09:18:52;;;;;;;6.53;3.20;;;30.20;40.30;;;;;;4358974;32;20078;-63
2021/05/23 09:21:21;;;;;;;8.90;3.20;;;30.00;39.60;;;;;;4372357;32;20598;-63
2021/05/23 09:23:54;;;;;;;6.25;3.33;;;30.20;39.50;;;;;;4373178;32;20074;-62
2021/05/23 09:26:31;;;;;;;11.02;3.50;;;30.70;37.50;;;;;;4372964;32;20491;-65
2021/05/23 09:29:08;;;;;;;8.27;4.07;;;31.20;36.00;;;;;;4373203;32;20134;-64
2021/05/23 09:31:35;;;;;;;7.07;3.37;;;30.90;35.50;;;;;;4373714;32;20159;-62
2021/05/23 09:34:02;;;;;;;5.97;3.15;;;30.60;37.80;;;;;;4373189;32;20067;-64
2021/05/23 09:36:28;;;;;;;10.70;3.87;;;31.10;36.80;;;;;;4344631;32;20074;-63
2021/05/23 09:38:59;;;;;;;7.53;3.28;;;30.90;36.20;;;;;;4348241;32;20066;-64
2021/05/23 09:41:36;;;;;;;7.90;2.92;;;30.70;37.10;;;;;;4336531;32;20078;-63
2021/05/23 09:44:25;;;;;;;6.12;3.22;;;31.00;36.80;;;;;;4347893;32;20505;-63
2021/05/23 09:47:03;;;;;;;5.30;3.50;;;31.80;34.50;;;;;;4348368;32;20589;-63
2021/05/23 09:49:40;;;;;;;6.68;3.25;;;31.90;34.50;;;;;;4336357;32;20063;-63
2021/05/23 09:52:09;;;;;;;8.68;3.50;;;31.60;33.70;;;;;;4349360;32;20082;-64
2021/05/23 09:55:08;;;;;;;7.80;3.50;;;31.20;34.50;;;;;;4348224;32;20074;-65
2021/05/23 09:57:34;;;;;;;9.70;2.85;;;31.50;36.40;;;;;;4319541;32;20077;-63
2021/05/23 10:00:09;;;;;;;8.52;3.15;;;31.10;33.70;;;;;;4360112;32;20068;-63
2021/05/23 10:02:50;;;;;;;8.52;3.37;;;30.80;32.80;;;;;;4359541;32;20083;-64
2021/05/23 10:05:17;;;;;;;5.53;3.40;;;30.80;33.90;;;;;;4348062;32;20081;-62
2021/05/23 10:07:43;;;;;;;6.93;3.25;;;30.70;31.60;;;;;;4335735;32;20180;-63
2021/05/23 10:10:10;;;;;;;7.82;3.20;;;30.80;33.40;;;;;;4335700;32;20140;-63
2021/05/23 10:12:37;;;;;;;7.65;3.35;;;30.90;32.20;;;;;;4347893;32;20551;-64
2021/05/23 10:15:07;;;;;;;6.18;3.47;;;31.40;31.70;;;;;;4323508;32;20078;-65
2021/05/23 10:17:38;;;;;;;5.70;2.83;;;31.90;30.60;;;;;;4340631;32;20070;-64
2021/05/23 10:20:07;;;;;;;4.93;3.22;;;31.30;31.40;;;;;;4348455;32;20054;-64
2021/05/23 10:22:35;;;;;;;5.57;2.97;;;31.60;29.90;;;;;;4360462;32;20075;-63
2021/05/23 10:25:12;;;;;;;6.32;3.05;;;31.20;29.70;;;;;;4359945;32;20077;-63
2021/05/23 10:27:44;;;;;;;7.97;3.33;;;30.90;29.00;;;;;;4347975;32;20082;-64
2021/05/23 10:30:11;;;;;;;6.30;3.20;;;31.70;29.20;;;;;;4348696;32;20097;-63
2021/05/23 10:32:38;;;;;;;5.30;3.00;;;31.80;28.60;;;;;;4348309;32;20078;-63
2021/05/23 10:35:26;;;;;;;7.70;3.20;;;31.50;28.70;;;;;;4359833;32;20062;-63
2021/05/23 10:37:53;;;;;;;6.00;3.22;;;32.10;28.40;;;;;;4336145;32;20460;-64
2021/05/23 10:40:27;;;;;;;6.68;3.30;;;32.00;28.30;;;;;;4335261;32;20066;-65
2021/05/23 10:42:59;;;;;;;7.30;2.97;;;32.80;27.80;;;;;;4335660;32;20059;-62
2021/05/23 10:45:39;;;;;;;10.05;2.80;;;32.50;26.80;;;;;;4348045;32;20070;-63
2021/05/23 10:48:17;;;;;;;8.93;3.30;;;31.90;27.50;;;;;;4336441;32;20078;-63
2021/05/23 10:50:44;;;;;;;8.63;3.40;;;31.90;27.20;;;;;;4336518;32;20162;-63
2021/05/23 10:53:11;;;;;;;10.07;3.17;;;32.00;27.70;;;;;;4323652;32;20485;-63
2021/05/23 10:55:57;;;;;;;5.55;3.00;;;32.40;27.20;;;;;;4335438;32;20148;-63
2021/05/23 10:58:24;;;;;;;6.45;2.80;;;32.90;27.00;;;;;;4335871;32;20098;-64
2021/05/23 11:00:55;;;;;;;5.10;2.75;;;33.00;26.50;;;;;;4334967;32;20537;-63
2021/05/23 11:03:24;;;;;;;5.35;2.58;;;33.00;26.50;;;;;;4335634;32;20600;-63
2021/05/23 11:06:04;;;;;;;3.55;2.35;;;33.00;25.30;;;;;;4323939;32;20114;-63
2021/05/23 11:08:35;;;;;;;6.35;2.70;;;32.40;26.20;;;;;;4335267;32;20153;-63
2021/05/23 11:11:02;;;;;;;3.00;2.30;;;31.90;26.20;;;;;;4335870;32;20094;-63
2021/05/23 11:13:34;;;;;;;6.50;2.80;;;32.20;26.80;;;;;;4348971;32;20173;-64
2021/05/23 11:16:19;;;;;;;7.53;3.03;;;33.10;25.90;;;;;;4350155;32;20074;-62
2021/05/23 11:18:46;;;;;;;8.00;3.17;;;33.70;25.70;;;;;;4337836;32;20070;-64
2021/05/23 11:21:14;;;;;;;7.43;2.80;;;32.90;25.40;;;;;;4350750;32;20511;-63
2021/05/23 11:23:48;;;;;;;12.57;3.05;;;32.40;25.70;;;;;;4362447;32;20079;-62
2021/05/23 11:26:15;;;;;;;11.30;3.62;;;32.60;25.90;;;;;;4350342;32;20450;-63
2021/05/23 11:28:52;;;;;;;8.57;3.20;;;33.20;26.50;;;;;;4350151;32;20069;-64
2021/05/23 11:31:25;;;;;;;6.45;2.90;;;33.00;26.10;;;;;;4362762;32;20545;-62
2021/05/23 11:33:52;;;;;;;6.43;3.15;;;33.60;25.10;;;;;;4349949;32;20074;-64
2021/05/23 11:36:25;;;;;;;7.35;2.90;;;33.60;25.50;;;;;;4352498;32;20059;-63
2021/05/23 11:39:06;;;;;;;8.95;3.47;;;33.00;26.90;;;;;;4326061;32;20077;-63
2021/05/23 11:41:45;;;;;;;9.27;2.90;;;33.20;25.50;;;;;;4352199;32;20500;-63
2021/05/23 11:44:14;;;;;;;5.55;2.87;;;32.40;26.80;;;;;;4338332;32;20067;-63
2021/05/23 11:46:43;;;;;;;6.75;3.10;;;33.00;26.00;;;;;;4338063;32;20547;-64
2021/05/23 11:49:23;;;;;;;6.78;3.35;;;33.00;26.20;;;;;;4338261;32;20099;-63
2021/05/23 11:51:50;;;;;;;8.57;3.20;;;33.20;25.90;;;;;;4337962;32;20082;-65
2021/05/23 11:54:17;;;;;;;6.90;2.65;;;32.90;25.10;;;;;;4350051;32;20062;-64
2021/05/23 11:56:43;;;;;;;9.73;2.85;;;33.00;25.90;;;;;;4337493;32;20157;-63
2021/05/23 11:59:10;;;;;;;7.30;2.90;;;33.20;25.20;;;;;;4337508;32;20074;-64
2021/05/23 12:01:41;;;;;;;5.87;2.97;;;33.70;24.70;;;;;;4349347;32;20464;-64
2021/05/23 12:04:11;;;;;;;8.00;3.08;;;33.60;24.70;;;;;;4337201;32;20071;-63
2021/05/23 12:06:50;;;;;;;8.55;3.40;;;33.80;24.40;;;;;;4337757;32;20508;-64
2021/05/23 12:09:21;;;;;;;8.02;3.20;;;33.00;25.10;;;;;;4349702;32;20516;-63
2021/05/23 12:11:58;;;;;;;12.43;3.22;;;32.80;25.80;;;;;;4337665;32;20509;-64
2021/05/23 12:14:35;;;;;;;8.90;4.68;;;33.00;25.50;;;;;;4338170;32;20102;-63
2021/05/23 12:17:05;;;;;;;6.95;3.30;;;33.10;26.80;;;;;;4354558;32;20076;-63
2021/05/23 12:19:47;;;;;;;9.65;3.50;;;33.00;25.40;;;;;;4364454;32;20081;-63
2021/05/23 12:22:33;;;;;;;12.27;3.10;;;33.30;25.80;;;;;;4352511;32;20433;-64
2021/05/23 12:25:10;;;;;;;7.55;3.42;;;33.10;24.90;;;;;;4352199;32;20170;-63
2021/05/23 12:27:40;;;;;;;7.03;3.22;;;33.00;25.60;;;;;;4364819;32;20081;-64
2021/05/23 12:30:13;;;;;;;7.65;3.60;;;33.20;25.30;;;;;;4364369;32;20081;-62
2021/05/23 12:33:00;;;;;;;7.55;3.75;;;33.10;25.50;;;;;;4376582;32;20205;-64
2021/05/23 12:35:31;;;;;;;10.68;3.53;;;33.00;26.40;;;;;;4364831;32;20086;-64
2021/05/23 12:38:04;;;;;;;8.10;3.60;;;33.10;26.20;;;;;;4376731;32;20097;-63
2021/05/23 12:40:33;;;;;;;6.97;3.10;;;33.60;25.10;;;;;;4352222;32;20446;-64
2021/05/23 12:43:20;;;;;;;9.98;3.75;;;33.60;24.80;;;;;;4339636;32;20581;-63
2021/05/23 12:46:03;;;;;;;8.38;3.42;;;32.90;25.90;;;;;;4365272;32;20197;-64
2021/05/23 12:48:36;;;;;;;12.65;3.55;;;32.80;27.00;;;;;;4364966;32;20073;-64
2021/05/23 12:51:16;;;;;;;12.63;4.60;;;32.80;27.00;;;;;;4376207;32;20070;-63
2021/05/23 12:53:45;;;;;;;11.57;3.33;;;32.70;26.90;;;;;;4376476;32;20178;-63
2021/05/23 12:56:17;;;;;;;10.07;3.37;;;32.80;27.20;;;;;;4342328;32;20510;-64